sensor_id;sensor_type;location;lat;lon;timestamp;P1;durP1;ratioP1;P2;durP2;ratioP2
19343;SDS011;9808;52.402;16.678;2022-09-25T00:00:57;101.37;;;48.60;;
19343;SDS011;9808;52.402;16.678;2022-09-25T00:03:25;98.87;;;45.83;;
19343;SDS011;9808;52.402;16.678;2022-09-25T00:05:59;94.83;;;45.30;;
19343;SDS011;9808;52.402;16.678;2022-09-25T00:08:30;88.23;;;44.10;;
19343;SDS011;9808;52.402;16.678;2022-09-25T00:10:58;94.23;;;46.13;;
19343;SDS011;9808;52.402;16.678;2022-09-25T00:13:25;92.77;;;44.50;;
19343;SDS011;9808;52.402;16.678;2022-09-25T00:15:55;88.70;;;43.20;;
19343;SDS011;9808;52.402;16.678;2022-09-25T00:18:23;84.90;;;43.60;;
19343;SDS011;9808;52.402;16.678;2022-09-25T00:21:11;79.83;;;43.03;;
19343;SDS011;9808;52.402;16.678;2022-09-25T00:23:40;79.93;;;40.13;;
19343;SDS011;9808;52.402;16.678;2022-09-25T00:26:09;77.00;;;40.93;;
19343;SDS011;9808;52.402;16.678;2022-09-25T00:28:37;77.80;;;40.40;;
19343;SDS011;9808;52.402;16.678;2022-09-25T00:31:05;74.53;;;40.07;;
19343;SDS011;9808;52.402;16.678;2022-09-25T00:33:33;80.43;;;40.43;;
19343;SDS011;9808;52.402;16.678;2022-09-25T00:36:02;78.20;;;41.90;;
19343;SDS011;9808;52.402;16.678;2022-09-25T00:38:30;73.30;;;41.13;;
19343;SDS011;9808;52.402;16.678;2022-09-25T00:40:58;71.53;;;40.53;;
19343;SDS011;9808;52.402;16.678;2022-09-25T00:43:38;78.97;;;41.47;;
19343;SDS011;9808;52.402;16.678;2022-09-25T00:46:19;75.83;;;42.03;;
19343;SDS011;9808;52.402;16.678;2022-09-25T00:48:54;77.60;;;40.83;;
19343;SDS011;9808;52.402;16.678;2022-09-25T00:51:24;74.40;;;40.97;;
19343;SDS011;9808;52.402;16.678;2022-09-25T00:53:58;73.43;;;39.87;;
19343;SDS011;9808;52.402;16.678;2022-09-25T00:56:28;77.60;;;41.07;;
19343;SDS011;9808;52.402;16.678;2022-09-25T00:59:01;82.60;;;41.13;;
19343;SDS011;9808;52.402;16.678;2022-09-25T01:01:28;69.37;;;39.17;;
19343;SDS011;9808;52.402;16.678;2022-09-25T01:03:56;77.13;;;40.47;;
19343;SDS011;9808;52.402;16.678;2022-09-25T01:06:23;74.53;;;39.63;;
19343;SDS011;9808;52.402;16.678;2022-09-25T01:08:51;74.03;;;39.87;;
19343;SDS011;9808;52.402;16.678;2022-09-25T01:11:19;72.77;;;40.50;;
19343;SDS011;9808;52.402;16.678;2022-09-25T01:13:46;72.17;;;40.93;;
19343;SDS011;9808;52.402;16.678;2022-09-25T01:16:20;76.03;;;42.47;;
19343;SDS011;9808;52.402;16.678;2022-09-25T01:21:42;80.53;;;44.77;;
19343;SDS011;9808;52.402;16.678;2022-09-25T01:24:22;77.47;;;43.40;;
19343;SDS011;9808;52.402;16.678;2022-09-25T01:29:48;77.53;;;42.00;;
19343;SDS011;9808;52.402;16.678;2022-09-25T01:34:59;74.47;;;41.60;;
19343;SDS011;9808;52.402;16.678;2022-09-25T01:37:36;72.10;;;41.37;;
19343;SDS011;9808;52.402;16.678;2022-09-25T01:40:10;75.40;;;41.57;;
19343;SDS011;9808;52.402;16.678;2022-09-25T01:42:50;76.07;;;41.00;;
19343;SDS011;9808;52.402;16.678;2022-09-25T01:45:53;73.07;;;40.57;;
19343;SDS011;9808;52.402;16.678;2022-09-25T01:48:22;77.63;;;41.03;;
19343;SDS011;9808;52.402;16.678;2022-09-25T01:54:10;63.27;;;36.70;;
19343;SDS011;9808;52.402;16.678;2022-09-25T01:56:46;67.43;;;36.93;;
19343;SDS011;9808;52.402;16.678;2022-09-25T02:02:11;63.27;;;35.50;;
19343;SDS011;9808;52.402;16.678;2022-09-25T02:04:42;62.90;;;36.27;;
19343;SDS011;9808;52.402;16.678;2022-09-25T02:07:35;62.50;;;34.83;;
19343;SDS011;9808;52.402;16.678;2022-09-25T02:12:49;64.33;;;35.30;;
19343;SDS011;9808;52.402;16.678;2022-09-25T02:15:21;68.97;;;37.40;;
19343;SDS011;9808;52.402;16.678;2022-09-25T02:18:00;68.93;;;38.00;;
19343;SDS011;9808;52.402;16.678;2022-09-25T02:24:29;76.73;;;41.93;;
19343;SDS011;9808;52.402;16.678;2022-09-25T02:26:52;75.87;;;43.00;;
19343;SDS011;9808;52.402;16.678;2022-09-25T02:29:18;92.07;;;47.50;;
19343;SDS011;9808;52.402;16.678;2022-09-25T02:31:52;97.23;;;48.87;;
19343;SDS011;9808;52.402;16.678;2022-09-25T02:34:23;104.13;;;50.03;;
19343;SDS011;9808;52.402;16.678;2022-09-25T02:36:49;101.90;;;52.07;;
19343;SDS011;9808;52.402;16.678;2022-09-25T02:39:18;101.07;;;50.83;;
19343;SDS011;9808;52.402;16.678;2022-09-25T02:48:01;94.13;;;46.33;;
19343;SDS011;9808;52.402;16.678;2022-09-25T02:50:50;89.93;;;44.53;;
19343;SDS011;9808;52.402;16.678;2022-09-25T02:58:51;79.83;;;42.13;;
19343;SDS011;9808;52.402;16.678;2022-09-25T03:01:22;68.60;;;37.10;;
19343;SDS011;9808;52.402;16.678;2022-09-25T03:03:52;69.03;;;35.87;;
19343;SDS011;9808;52.402;16.678;2022-09-25T03:06:21;69.17;;;35.63;;
19343;SDS011;9808;52.402;16.678;2022-09-25T03:08:50;66.20;;;34.90;;
19343;SDS011;9808;52.402;16.678;2022-09-25T03:11:22;62.83;;;33.43;;
19343;SDS011;9808;52.402;16.678;2022-09-25T03:13:59;62.33;;;32.20;;
19343;SDS011;9808;52.402;16.678;2022-09-25T03:19:06;49.70;;;28.33;;
19343;SDS011;9808;52.402;16.678;2022-09-25T03:21:33;51.53;;;27.40;;
19343;SDS011;9808;52.402;16.678;2022-09-25T03:24:00;47.30;;;25.57;;
19343;SDS011;9808;52.402;16.678;2022-09-25T03:26:27;45.40;;;26.03;;
19343;SDS011;9808;52.402;16.678;2022-09-25T03:28:54;42.17;;;25.83;;
19343;SDS011;9808;52.402;16.678;2022-09-25T03:31:21;43.80;;;25.67;;
19343;SDS011;9808;52.402;16.678;2022-09-25T03:33:48;42.33;;;24.23;;
19343;SDS011;9808;52.402;16.678;2022-09-25T03:36:16;43.53;;;22.97;;
19343;SDS011;9808;52.402;16.678;2022-09-25T03:38:46;39.70;;;21.90;;
19343;SDS011;9808;52.402;16.678;2022-09-25T03:41:15;38.93;;;21.70;;
19343;SDS011;9808;52.402;16.678;2022-09-25T03:43:45;33.27;;;21.13;;
19343;SDS011;9808;52.402;16.678;2022-09-25T03:46:23;37.50;;;22.93;;
19343;SDS011;9808;52.402;16.678;2022-09-25T03:48:53;35.23;;;23.07;;
19343;SDS011;9808;52.402;16.678;2022-09-25T03:51:21;42.70;;;24.47;;
19343;SDS011;9808;52.402;16.678;2022-09-25T03:53:49;41.50;;;24.33;;
19343;SDS011;9808;52.402;16.678;2022-09-25T03:56:17;41.43;;;24.10;;
19343;SDS011;9808;52.402;16.678;2022-09-25T03:58:46;42.53;;;24.90;;
19343;SDS011;9808;52.402;16.678;2022-09-25T04:01:14;39.30;;;24.33;;
19343;SDS011;9808;52.402;16.678;2022-09-25T04:03:41;46.20;;;26.10;;
19343;SDS011;9808;52.402;16.678;2022-09-25T04:06:13;47.33;;;27.03;;
19343;SDS011;9808;52.402;16.678;2022-09-25T04:08:44;46.87;;;27.73;;
19343;SDS011;9808;52.402;16.678;2022-09-25T04:11:13;50.53;;;29.43;;
19343;SDS011;9808;52.402;16.678;2022-09-25T04:13:41;49.40;;;29.67;;
19343;SDS011;9808;52.402;16.678;2022-09-25T04:16:10;56.93;;;31.70;;
19343;SDS011;9808;52.402;16.678;2022-09-25T04:18:38;60.27;;;32.00;;
19343;SDS011;9808;52.402;16.678;2022-09-25T04:21:07;59.30;;;34.57;;
19343;SDS011;9808;52.402;16.678;2022-09-25T04:23:36;65.70;;;35.73;;
19343;SDS011;9808;52.402;16.678;2022-09-25T04:26:03;65.83;;;36.90;;
19343;SDS011;9808;52.402;16.678;2022-09-25T04:28:30;67.70;;;37.37;;
19343;SDS011;9808;52.402;16.678;2022-09-25T04:30:58;65.87;;;35.53;;
19343;SDS011;9808;52.402;16.678;2022-09-25T04:33:25;56.53;;;32.77;;
19343;SDS011;9808;52.402;16.678;2022-09-25T04:36:11;57.33;;;30.33;;
19343;SDS011;9808;52.402;16.678;2022-09-25T04:38:38;44.63;;;26.37;;
19343;SDS011;9808;52.402;16.678;2022-09-25T04:41:04;45.77;;;26.23;;
19343;SDS011;9808;52.402;16.678;2022-09-25T04:43:33;46.17;;;26.90;;
19343;SDS011;9808;52.402;16.678;2022-09-25T04:46:04;43.30;;;26.07;;
19343;SDS011;9808;52.402;16.678;2022-09-25T04:48:32;41.10;;;25.40;;
19343;SDS011;9808;52.402;16.678;2022-09-25T04:51:01;42.00;;;24.60;;
19343;SDS011;9808;52.402;16.678;2022-09-25T04:53:29;39.40;;;24.07;;
19343;SDS011;9808;52.402;16.678;2022-09-25T04:56:00;39.77;;;24.83;;
19343;SDS011;9808;52.402;16.678;2022-09-25T04:58:42;41.27;;;24.73;;
19343;SDS011;9808;52.402;16.678;2022-09-25T05:01:10;37.07;;;22.80;;
19343;SDS011;9808;52.402;16.678;2022-09-25T05:03:37;36.67;;;22.33;;
19343;SDS011;9808;52.402;16.678;2022-09-25T05:06:04;35.53;;;21.33;;
19343;SDS011;9808;52.402;16.678;2022-09-25T05:08:31;35.97;;;21.73;;
19343;SDS011;9808;52.402;16.678;2022-09-25T05:10:58;38.57;;;22.93;;
19343;SDS011;9808;52.402;16.678;2022-09-25T05:13:25;38.63;;;23.00;;
19343;SDS011;9808;52.402;16.678;2022-09-25T05:15:53;35.83;;;21.50;;
19343;SDS011;9808;52.402;16.678;2022-09-25T05:18:21;32.33;;;19.87;;
19343;SDS011;9808;52.402;16.678;2022-09-25T05:20:49;34.90;;;19.47;;
19343;SDS011;9808;52.402;16.678;2022-09-25T05:23:17;33.77;;;20.73;;
19343;SDS011;9808;52.402;16.678;2022-09-25T05:25:49;37.33;;;20.43;;
19343;SDS011;9808;52.402;16.678;2022-09-25T05:28:23;34.30;;;20.70;;
19343;SDS011;9808;52.402;16.678;2022-09-25T05:30:50;35.73;;;21.87;;
19343;SDS011;9808;52.402;16.678;2022-09-25T05:33:17;32.47;;;19.70;;
19343;SDS011;9808;52.402;16.678;2022-09-25T05:35:44;39.50;;;22.77;;
19343;SDS011;9808;52.402;16.678;2022-09-25T05:38:11;38.53;;;23.43;;
19343;SDS011;9808;52.402;16.678;2022-09-25T05:40:38;37.13;;;23.07;;
19343;SDS011;9808;52.402;16.678;2022-09-25T05:43:05;39.27;;;22.07;;
19343;SDS011;9808;52.402;16.678;2022-09-25T05:45:32;40.37;;;23.00;;
19343;SDS011;9808;52.402;16.678;2022-09-25T05:48:03;34.47;;;21.80;;
19343;SDS011;9808;52.402;16.678;2022-09-25T05:50:31;37.37;;;23.37;;
19343;SDS011;9808;52.402;16.678;2022-09-25T05:52:59;51.13;;;29.27;;
19343;SDS011;9808;52.402;16.678;2022-09-25T05:55:28;49.43;;;30.93;;
19343;SDS011;9808;52.402;16.678;2022-09-25T05:57:59;49.80;;;30.57;;
19343;SDS011;9808;52.402;16.678;2022-09-25T06:00:28;50.73;;;32.33;;
19343;SDS011;9808;52.402;16.678;2022-09-25T06:03:01;48.77;;;32.00;;
19343;SDS011;9808;52.402;16.678;2022-09-25T06:05:28;51.73;;;31.47;;
19343;SDS011;9808;52.402;16.678;2022-09-25T06:07:55;48.87;;;31.40;;
19343;SDS011;9808;52.402;16.678;2022-09-25T06:10:22;53.03;;;33.43;;
19343;SDS011;9808;52.402;16.678;2022-09-25T06:12:51;52.43;;;32.73;;
19343;SDS011;9808;52.402;16.678;2022-09-25T06:15:24;55.53;;;35.17;;
19343;SDS011;9808;52.402;16.678;2022-09-25T06:17:56;52.23;;;33.77;;
19343;SDS011;9808;52.402;16.678;2022-09-25T06:20:23;53.87;;;35.93;;
19343;SDS011;9808;52.402;16.678;2022-09-25T06:22:51;55.13;;;35.30;;
19343;SDS011;9808;52.402;16.678;2022-09-25T06:25:21;54.77;;;33.30;;
19343;SDS011;9808;52.402;16.678;2022-09-25T06:27:52;52.53;;;32.40;;
19343;SDS011;9808;52.402;16.678;2022-09-25T06:30:20;50.67;;;32.93;;
19343;SDS011;9808;52.402;16.678;2022-09-25T06:32:48;55.27;;;32.93;;
19343;SDS011;9808;52.402;16.678;2022-09-25T06:35:25;48.90;;;31.90;;
19343;SDS011;9808;52.402;16.678;2022-09-25T06:37:57;49.47;;;30.40;;
19343;SDS011;9808;52.402;16.678;2022-09-25T06:40:25;47.97;;;30.20;;
19343;SDS011;9808;52.402;16.678;2022-09-25T06:42:54;47.17;;;28.90;;
19343;SDS011;9808;52.402;16.678;2022-09-25T06:45:21;48.53;;;31.97;;
19343;SDS011;9808;52.402;16.678;2022-09-25T06:47:49;50.83;;;32.13;;
19343;SDS011;9808;52.402;16.678;2022-09-25T06:50:16;52.90;;;33.00;;
19343;SDS011;9808;52.402;16.678;2022-09-25T06:52:43;52.37;;;33.40;;
19343;SDS011;9808;52.402;16.678;2022-09-25T06:55:10;48.17;;;32.37;;
19343;SDS011;9808;52.402;16.678;2022-09-25T06:57:37;48.77;;;32.93;;
19343;SDS011;9808;52.402;16.678;2022-09-25T07:00:04;50.27;;;32.43;;
19343;SDS011;9808;52.402;16.678;2022-09-25T07:02:31;52.30;;;32.00;;
19343;SDS011;9808;52.402;16.678;2022-09-25T07:05:16;47.30;;;29.37;;
19343;SDS011;9808;52.402;16.678;2022-09-25T07:07:44;46.20;;;29.97;;
19343;SDS011;9808;52.402;16.678;2022-09-25T07:10:11;50.47;;;30.43;;
19343;SDS011;9808;52.402;16.678;2022-09-25T07:12:38;48.20;;;31.00;;
19343;SDS011;9808;52.402;16.678;2022-09-25T07:15:07;51.27;;;30.77;;
19343;SDS011;9808;52.402;16.678;2022-09-25T07:17:34;51.10;;;30.57;;
19343;SDS011;9808;52.402;16.678;2022-09-25T07:20:01;52.80;;;29.50;;
19343;SDS011;9808;52.402;16.678;2022-09-25T07:22:28;46.07;;;27.83;;
19343;SDS011;9808;52.402;16.678;2022-09-25T07:24:55;49.60;;;27.33;;
19343;SDS011;9808;52.402;16.678;2022-09-25T07:27:21;49.23;;;27.17;;
19343;SDS011;9808;52.402;16.678;2022-09-25T07:29:48;42.00;;;25.57;;
19343;SDS011;9808;52.402;16.678;2022-09-25T07:32:17;45.37;;;26.23;;
19343;SDS011;9808;52.402;16.678;2022-09-25T07:34:45;45.43;;;27.43;;
19343;SDS011;9808;52.402;16.678;2022-09-25T07:37:15;42.93;;;26.00;;
19343;SDS011;9808;52.402;16.678;2022-09-25T07:39:43;39.10;;;24.50;;
19343;SDS011;9808;52.402;16.678;2022-09-25T07:42:10;47.00;;;26.40;;
19343;SDS011;9808;52.402;16.678;2022-09-25T07:44:36;41.20;;;25.33;;
19343;SDS011;9808;52.402;16.678;2022-09-25T07:47:09;37.60;;;25.50;;
19343;SDS011;9808;52.402;16.678;2022-09-25T07:49:40;40.73;;;25.20;;
19343;SDS011;9808;52.402;16.678;2022-09-25T07:52:07;39.70;;;24.87;;
19343;SDS011;9808;52.402;16.678;2022-09-25T07:54:33;38.53;;;24.70;;
19343;SDS011;9808;52.402;16.678;2022-09-25T07:57:02;38.30;;;23.37;;
19343;SDS011;9808;52.402;16.678;2022-09-25T07:59:29;39.03;;;22.43;;
19343;SDS011;9808;52.402;16.678;2022-09-25T08:01:56;34.17;;;21.83;;
19343;SDS011;9808;52.402;16.678;2022-09-25T08:04:23;33.40;;;21.80;;
19343;SDS011;9808;52.402;16.678;2022-09-25T08:06:50;29.90;;;20.30;;
19343;SDS011;9808;52.402;16.678;2022-09-25T08:09:16;33.38;;;21.63;;
19343;SDS011;9808;52.402;16.678;2022-09-25T08:11:43;33.88;;;20.80;;
19343;SDS011;9808;52.402;16.678;2022-09-25T08:14:10;30.90;;;20.73;;
19343;SDS011;9808;52.402;16.678;2022-09-25T08:16:39;36.15;;;21.55;;
19343;SDS011;9808;52.402;16.678;2022-09-25T08:19:08;31.60;;;20.58;;
19343;SDS011;9808;52.402;16.678;2022-09-25T08:21:36;26.80;;;18.73;;
19343;SDS011;9808;52.402;16.678;2022-09-25T08:24:02;29.50;;;18.60;;
19343;SDS011;9808;52.402;16.678;2022-09-25T08:26:29;30.35;;;18.85;;
19343;SDS011;9808;52.402;16.678;2022-09-25T08:28:56;30.88;;;19.42;;
19343;SDS011;9808;52.402;16.678;2022-09-25T08:31:25;36.08;;;21.02;;
19343;SDS011;9808;52.402;16.678;2022-09-25T08:33:52;31.30;;;20.42;;
19343;SDS011;9808;52.402;16.678;2022-09-25T08:36:19;38.28;;;20.60;;
19343;SDS011;9808;52.402;16.678;2022-09-25T08:38:47;28.23;;;19.30;;
19343;SDS011;9808;52.402;16.678;2022-09-25T08:41:23;27.05;;;18.15;;
19343;SDS011;9808;52.402;16.678;2022-09-25T08:43:54;31.02;;;19.25;;
19343;SDS011;9808;52.402;16.678;2022-09-25T08:46:34;25.08;;;15.57;;
19343;SDS011;9808;52.402;16.678;2022-09-25T08:52:28;21.88;;;13.65;;
19343;SDS011;9808;52.402;16.678;2022-09-25T08:54:56;22.35;;;12.73;;
19343;SDS011;9808;52.402;16.678;2022-09-25T08:57:26;20.83;;;13.02;;
19343;SDS011;9808;52.402;16.678;2022-09-25T09:00:07;20.05;;;13.00;;
19343;SDS011;9808;52.402;16.678;2022-09-25T09:02:46;22.88;;;14.43;;
19343;SDS011;9808;52.402;16.678;2022-09-25T09:07:54;25.77;;;15.93;;
19343;SDS011;9808;52.402;16.678;2022-09-25T09:12:59;24.75;;;15.00;;
19343;SDS011;9808;52.402;16.678;2022-09-25T09:18:30;24.65;;;14.93;;
19343;SDS011;9808;52.402;16.678;2022-09-25T09:21:12;23.23;;;14.80;;
19343;SDS011;9808;52.402;16.678;2022-09-25T09:29:47;32.78;;;18.02;;
19343;SDS011;9808;52.402;16.678;2022-09-25T09:35:20;26.77;;;16.08;;
19343;SDS011;9808;52.402;16.678;2022-09-25T09:46:05;28.27;;;13.55;;
19343;SDS011;9808;52.402;16.678;2022-09-25T09:48:57;22.60;;;12.13;;
19343;SDS011;9808;52.402;16.678;2022-09-25T09:51:38;28.02;;;12.55;;
19343;SDS011;9808;52.402;16.678;2022-09-25T09:54:09;30.10;;;13.68;;
19343;SDS011;9808;52.402;16.678;2022-09-25T09:56:47;18.50;;;13.23;;
19343;SDS011;9808;52.402;16.678;2022-09-25T09:59:26;26.45;;;14.02;;
19343;SDS011;9808;52.402;16.678;2022-09-25T10:02:00;21.35;;;13.07;;
19343;SDS011;9808;52.402;16.678;2022-09-25T10:04:35;19.73;;;12.55;;
19343;SDS011;9808;52.402;16.678;2022-09-25T10:07:09;22.05;;;12.55;;
19343;SDS011;9808;52.402;16.678;2022-09-25T10:09:39;27.67;;;12.38;;
19343;SDS011;9808;52.402;16.678;2022-09-25T10:12:06;22.38;;;13.85;;
19343;SDS011;9808;52.402;16.678;2022-09-25T10:15:00;22.98;;;13.27;;
19343;SDS011;9808;52.402;16.678;2022-09-25T10:17:30;21.98;;;13.00;;
19343;SDS011;9808;52.402;16.678;2022-09-25T10:20:00;21.45;;;12.98;;
19343;SDS011;9808;52.402;16.678;2022-09-25T10:22:36;20.10;;;12.98;;
19343;SDS011;9808;52.402;16.678;2022-09-25T10:25:05;18.85;;;12.27;;
19343;SDS011;9808;52.402;16.678;2022-09-25T10:32:55;21.83;;;13.15;;
19343;SDS011;9808;52.402;16.678;2022-09-25T10:38:30;28.50;;;14.00;;
19343;SDS011;9808;52.402;16.678;2022-09-25T10:41:17;24.42;;;13.38;;
19343;SDS011;9808;52.402;16.678;2022-09-25T10:43:53;24.58;;;12.75;;
19343;SDS011;9808;52.402;16.678;2022-09-25T10:46:28;21.88;;;13.00;;
19343;SDS011;9808;52.402;16.678;2022-09-25T10:49:16;19.20;;;13.05;;
19343;SDS011;9808;52.402;16.678;2022-09-25T10:52:03;24.38;;;12.88;;
19343;SDS011;9808;52.402;16.678;2022-09-25T10:54:35;21.60;;;13.27;;
19343;SDS011;9808;52.402;16.678;2022-09-25T10:57:19;21.63;;;11.75;;
19343;SDS011;9808;52.402;16.678;2022-09-25T11:00:05;19.30;;;11.98;;
19343;SDS011;9808;52.402;16.678;2022-09-25T11:02:45;22.52;;;12.70;;
19343;SDS011;9808;52.402;16.678;2022-09-25T11:05:17;21.63;;;11.48;;
19343;SDS011;9808;52.402;16.678;2022-09-25T11:07:49;16.90;;;11.13;;
19343;SDS011;9808;52.402;16.678;2022-09-25T11:10:20;17.40;;;10.40;;
19343;SDS011;9808;52.402;16.678;2022-09-25T11:12:49;16.85;;;9.63;;
19343;SDS011;9808;52.402;16.678;2022-09-25T11:15:18;15.70;;;10.98;;
19343;SDS011;9808;52.402;16.678;2022-09-25T11:17:49;19.17;;;10.88;;
19343;SDS011;9808;52.402;16.678;2022-09-25T11:20:20;15.60;;;10.18;;
19343;SDS011;9808;52.402;16.678;2022-09-25T11:26:09;16.40;;;10.25;;
19343;SDS011;9808;52.402;16.678;2022-09-25T11:28:56;15.75;;;9.38;;
19343;SDS011;9808;52.402;16.678;2022-09-25T11:31:42;18.50;;;11.57;;
19343;SDS011;9808;52.402;16.678;2022-09-25T11:37:18;16.90;;;10.63;;
19343;SDS011;9808;52.402;16.678;2022-09-25T11:40:16;19.38;;;10.57;;
19343;SDS011;9808;52.402;16.678;2022-09-25T11:43:04;15.27;;;9.82;;
19343;SDS011;9808;52.402;16.678;2022-09-25T11:45:50;14.13;;;8.88;;
19343;SDS011;9808;52.402;16.678;2022-09-25T11:48:41;15.45;;;8.95;;
19343;SDS011;9808;52.402;16.678;2022-09-25T11:57:12;13.48;;;8.80;;
19343;SDS011;9808;52.402;16.678;2022-09-25T11:59:54;13.48;;;8.30;;
19343;SDS011;9808;52.402;16.678;2022-09-25T12:02:35;9.38;;;5.57;;
19343;SDS011;9808;52.402;16.678;2022-09-25T12:08:14;14.13;;;7.63;;
19343;SDS011;9808;52.402;16.678;2022-09-25T12:10:56;12.18;;;7.13;;
19343;SDS011;9808;52.402;16.678;2022-09-25T12:18:42;6.82;;;4.32;;
19343;SDS011;9808;52.402;16.678;2022-09-25T12:21:38;7.15;;;4.15;;
19343;SDS011;9808;52.402;16.678;2022-09-25T12:24:47;8.65;;;5.15;;
19343;SDS011;9808;52.402;16.678;2022-09-25T12:30:06;8.98;;;5.15;;
19343;SDS011;9808;52.402;16.678;2022-09-25T12:35:49;6.03;;;3.95;;
19343;SDS011;9808;52.402;16.678;2022-09-25T12:46:43;8.50;;;4.78;;
19343;SDS011;9808;52.402;16.678;2022-09-25T12:51:58;8.05;;;4.68;;
19343;SDS011;9808;52.402;16.678;2022-09-25T12:54:55;7.82;;;4.78;;
19343;SDS011;9808;52.402;16.678;2022-09-25T13:00:21;8.93;;;4.85;;
19343;SDS011;9808;52.402;16.678;2022-09-25T13:03:05;10.35;;;5.00;;
19343;SDS011;9808;52.402;16.678;2022-09-25T13:08:38;14.45;;;7.05;;
19343;SDS011;9808;52.402;16.678;2022-09-25T13:11:22;10.65;;;5.43;;
19343;SDS011;9808;52.402;16.678;2022-09-25T13:14:06;11.88;;;5.78;;
19343;SDS011;9808;52.402;16.678;2022-09-25T13:17:05;9.13;;;5.28;;
19343;SDS011;9808;52.402;16.678;2022-09-25T13:19:36;8.93;;;5.22;;
19343;SDS011;9808;52.402;16.678;2022-09-25T13:24:41;10.30;;;5.07;;
19343;SDS011;9808;52.402;16.678;2022-09-25T13:27:15;11.70;;;4.97;;
19343;SDS011;9808;52.402;16.678;2022-09-25T13:29:51;10.43;;;5.00;;
19343;SDS011;9808;52.402;16.678;2022-09-25T13:32:22;8.10;;;5.22;;
19343;SDS011;9808;52.402;16.678;2022-09-25T13:34:54;7.97;;;4.63;;
19343;SDS011;9808;52.402;16.678;2022-09-25T13:37:32;11.57;;;4.95;;
19343;SDS011;9808;52.402;16.678;2022-09-25T13:40:06;8.20;;;5.40;;
19343;SDS011;9808;52.402;16.678;2022-09-25T13:48:46;7.90;;;4.80;;
19343;SDS011;9808;52.402;16.678;2022-09-25T13:53:53;8.57;;;4.95;;
19343;SDS011;9808;52.402;16.678;2022-09-25T14:01:53;7.50;;;4.30;;
19343;SDS011;9808;52.402;16.678;2022-09-25T14:06:54;10.43;;;4.88;;
19343;SDS011;9808;52.402;16.678;2022-09-25T14:09:29;10.32;;;5.22;;
19343;SDS011;9808;52.402;16.678;2022-09-25T14:14:43;12.32;;;5.07;;
19343;SDS011;9808;52.402;16.678;2022-09-25T14:17:18;7.45;;;4.43;;
19343;SDS011;9808;52.402;16.678;2022-09-25T14:19:47;7.68;;;4.80;;
19343;SDS011;9808;52.402;16.678;2022-09-25T14:22:19;7.88;;;5.13;;
19343;SDS011;9808;52.402;16.678;2022-09-25T14:24:54;7.40;;;4.68;;
19343;SDS011;9808;52.402;16.678;2022-09-25T14:27:22;10.32;;;4.78;;
19343;SDS011;9808;52.402;16.678;2022-09-25T14:30:00;8.15;;;5.03;;
19343;SDS011;9808;52.402;16.678;2022-09-25T14:35:33;8.45;;;5.13;;
19343;SDS011;9808;52.402;16.678;2022-09-25T14:41:13;9.30;;;5.43;;
19343;SDS011;9808;52.402;16.678;2022-09-25T14:43:56;8.88;;;5.50;;
19343;SDS011;9808;52.402;16.678;2022-09-25T14:46:43;13.88;;;7.32;;
19343;SDS011;9808;52.402;16.678;2022-09-25T14:49:22;10.15;;;5.72;;
19343;SDS011;9808;52.402;16.678;2022-09-25T14:51:50;8.57;;;5.35;;
19343;SDS011;9808;52.402;16.678;2022-09-25T14:54:21;8.43;;;5.10;;
19343;SDS011;9808;52.402;16.678;2022-09-25T14:56:52;11.85;;;5.78;;
19343;SDS011;9808;52.402;16.678;2022-09-25T14:59:28;9.85;;;5.90;;
19343;SDS011;9808;52.402;16.678;2022-09-25T15:02:17;10.93;;;5.57;;
19343;SDS011;9808;52.402;16.678;2022-09-25T15:04:48;10.82;;;4.97;;
19343;SDS011;9808;52.402;16.678;2022-09-25T15:07:17;9.63;;;5.85;;
19343;SDS011;9808;52.402;16.678;2022-09-25T15:09:51;8.93;;;5.13;;
19343;SDS011;9808;52.402;16.678;2022-09-25T15:12:28;7.90;;;4.63;;
19343;SDS011;9808;52.402;16.678;2022-09-25T15:15:05;8.77;;;5.40;;
19343;SDS011;9808;52.402;16.678;2022-09-25T15:17:42;9.15;;;4.90;;
19343;SDS011;9808;52.402;16.678;2022-09-25T15:20:15;9.27;;;4.72;;
19343;SDS011;9808;52.402;16.678;2022-09-25T15:22:51;7.35;;;4.85;;
19343;SDS011;9808;52.402;16.678;2022-09-25T15:25:23;9.73;;;5.93;;
19343;SDS011;9808;52.402;16.678;2022-09-25T15:27:54;9.85;;;5.03;;
19343;SDS011;9808;52.402;16.678;2022-09-25T15:30:22;32.65;;;9.60;;
19343;SDS011;9808;52.402;16.678;2022-09-25T15:32:53;42.15;;;9.32;;
19343;SDS011;9808;52.402;16.678;2022-09-25T15:35:26;15.77;;;6.13;;
19343;SDS011;9808;52.402;16.678;2022-09-25T15:40:57;10.18;;;5.18;;
19343;SDS011;9808;52.402;16.678;2022-09-25T15:43:24;29.40;;;6.07;;
19343;SDS011;9808;52.402;16.678;2022-09-25T15:48:24;19.90;;;6.60;;
19343;SDS011;9808;52.402;16.678;2022-09-25T15:50:56;22.15;;;6.47;;
19343;SDS011;9808;52.402;16.678;2022-09-25T15:53:39;27.52;;;6.68;;
19343;SDS011;9808;52.402;16.678;2022-09-25T15:58:43;30.00;;;8.32;;
19343;SDS011;9808;52.402;16.678;2022-09-25T16:01:13;32.67;;;7.18;;
19343;SDS011;9808;52.402;16.678;2022-09-25T16:04:04;30.08;;;7.00;;
19343;SDS011;9808;52.402;16.678;2022-09-25T16:06:51;26.75;;;7.00;;
19343;SDS011;9808;52.402;16.678;2022-09-25T16:09:26;22.38;;;5.90;;
19343;SDS011;9808;52.402;16.678;2022-09-25T16:14:48;26.08;;;5.90;;
19343;SDS011;9808;52.402;16.678;2022-09-25T16:17:22;21.98;;;6.05;;
19343;SDS011;9808;52.402;16.678;2022-09-25T16:20:30;23.75;;;5.63;;
19343;SDS011;9808;52.402;16.678;2022-09-25T16:23:02;22.25;;;6.35;;
19343;SDS011;9808;52.402;16.678;2022-09-25T16:25:32;17.70;;;6.88;;
19343;SDS011;9808;52.402;16.678;2022-09-25T16:28:07;17.48;;;5.55;;
19343;SDS011;9808;52.402;16.678;2022-09-25T16:30:36;15.63;;;5.90;;
19343;SDS011;9808;52.402;16.678;2022-09-25T16:33:04;30.75;;;6.68;;
19343;SDS011;9808;52.402;16.678;2022-09-25T16:35:40;19.65;;;5.65;;
19343;SDS011;9808;52.402;16.678;2022-09-25T16:38:30;36.25;;;6.53;;
19343;SDS011;9808;52.402;16.678;2022-09-25T16:41:04;28.52;;;6.88;;
19343;SDS011;9808;52.402;16.678;2022-09-25T16:43:32;43.33;;;9.40;;
19343;SDS011;9808;52.402;16.678;2022-09-25T16:46:11;51.85;;;10.65;;
19343;SDS011;9808;52.402;16.678;2022-09-25T16:48:41;38.70;;;10.88;;
19343;SDS011;9808;52.402;16.678;2022-09-25T16:51:21;42.65;;;10.82;;
19343;SDS011;9808;52.402;16.678;2022-09-25T16:53:52;38.17;;;11.10;;
19343;SDS011;9808;52.402;16.678;2022-09-25T16:56:30;41.88;;;12.90;;
19343;SDS011;9808;52.402;16.678;2022-09-25T16:58:57;43.88;;;13.43;;
19343;SDS011;9808;52.402;16.678;2022-09-25T17:01:25;52.53;;;15.93;;
19343;SDS011;9808;52.402;16.678;2022-09-25T17:03:53;53.88;;;23.13;;
19343;SDS011;9808;52.402;16.678;2022-09-25T17:06:25;77.97;;;29.10;;
19343;SDS011;9808;52.402;16.678;2022-09-25T17:08:54;78.57;;;31.95;;
19343;SDS011;9808;52.402;16.678;2022-09-25T17:11:23;83.68;;;35.80;;
19343;SDS011;9808;52.402;16.678;2022-09-25T17:13:50;68.05;;;29.00;;
19343;SDS011;9808;52.402;16.678;2022-09-25T17:16:17;68.13;;;25.73;;
19343;SDS011;9808;52.402;16.678;2022-09-25T17:18:44;83.28;;;35.95;;
19343;SDS011;9808;52.402;16.678;2022-09-25T17:21:12;77.95;;;35.88;;
19343;SDS011;9808;52.402;16.678;2022-09-25T17:23:41;60.97;;;30.30;;
19343;SDS011;9808;52.402;16.678;2022-09-25T17:26:15;50.42;;;22.23;;
19343;SDS011;9808;52.402;16.678;2022-09-25T17:28:42;43.63;;;20.27;;
19343;SDS011;9808;52.402;16.678;2022-09-25T17:31:13;43.42;;;18.02;;